createdAt,value
2022-08-21T11:22:21.175Z,9328.00
2022-08-21T11:23:21.248Z,9392.00
2022-08-21T11:24:21.123Z,9380.00
2022-08-21T11:25:21.120Z,9412.00
2022-08-21T11:26:21.101Z,9420.00
2022-08-21T11:27:21.110Z,9384.00
2022-08-21T11:28:21.086Z,9372.00
2022-08-21T11:29:21.068Z,9392.00
2022-08-21T11:30:21.055Z,9408.00
2022-08-21T11:31:21.040Z,9420.00
2022-08-21T11:32:21.048Z,9316.00
2022-08-21T11:33:21.014Z,9248.00
2022-08-21T11:34:21.924Z,9256.00
2022-08-21T11:35:20.987Z,9268.00
2022-08-21T11:36:20.990Z,9276.00
2022-08-21T11:37:20.981Z,9280.00
2022-08-21T11:38:23.255Z,9248.00
2022-08-21T11:39:20.995Z,9176.00
2022-08-21T11:40:20.988Z,9072.00
2022-08-21T11:41:21.002Z,9000.00
2022-08-21T11:42:20.921Z,9012.00
2022-08-21T11:43:20.897Z,9032.00
2022-08-21T11:44:20.889Z,9020.00
2022-08-21T11:45:20.885Z,8940.00
2022-08-21T11:46:20.866Z,8868.00
2022-08-21T11:47:20.887Z,8832.00
2022-08-21T11:48:20.852Z,8844.00
2022-08-21T11:49:20.831Z,8820.00
2022-08-21T11:50:34.457Z,8808.00
2022-08-21T11:51:20.812Z,8832.00
2022-08-21T11:52:20.827Z,8796.00
2022-08-21T11:53:20.798Z,8660.00
2022-08-21T11:54:20.777Z,8588.00
2022-08-21T11:55:23.783Z,8548.00
2022-08-21T11:56:20.764Z,8484.00
2022-08-21T11:57:20.761Z,8456.00
2022-08-21T11:58:20.746Z,8420.00
2022-08-21T11:59:20.736Z,8420.00
2022-08-21T12:00:20.725Z,8432.00
2022-08-21T12:01:20.708Z,8476.00
2022-08-21T12:02:20.788Z,8596.00
2022-08-21T12:03:20.691Z,8688.00
2022-08-21T12:04:20.674Z,8744.00
2022-08-21T12:05:20.674Z,8764.00
2022-08-21T12:06:24.316Z,8812.00
2022-08-21T12:07:20.656Z,8784.00
2022-08-21T12:08:20.640Z,8788.00
2022-08-21T12:09:20.635Z,8796.00
2022-08-21T12:10:20.619Z,8784.00
2022-08-21T12:11:20.603Z,8696.00
2022-08-21T12:12:20.620Z,8672.00
2022-08-21T12:13:20.592Z,8724.00
2022-08-21T12:14:20.571Z,8696.00
2022-08-21T12:15:20.564Z,8620.00
2022-08-21T12:16:20.550Z,8540.00
2022-08-21T12:17:20.675Z,8484.00
2022-08-21T12:18:20.534Z,8616.00
2022-08-21T12:19:20.524Z,8784.00
2022-08-21T12:20:20.511Z,8812.00
2022-08-21T12:21:20.511Z,8860.00
2022-08-21T12:22:20.497Z,9008.00
2022-08-21T12:23:20.496Z,9172.00
2022-08-21T12:24:20.481Z,9252.00
2022-08-21T12:25:21.925Z,9224.00
2022-08-21T12:26:20.452Z,8948.00
2022-08-21T12:27:20.442Z,9084.00
2022-08-21T12:28:20.453Z,9148.00
2022-08-21T12:29:20.425Z,9136.00
2022-08-21T12:30:20.423Z,9096.00
2022-08-21T12:31:20.403Z,9124.00
2022-08-21T12:32:20.459Z,9152.00
2022-08-21T12:33:20.406Z,9088.00
2022-08-21T12:34:20.389Z,9164.00
2022-08-21T12:35:25.167Z,8976.00
2022-08-21T12:36:20.362Z,9096.00
2022-08-21T12:37:20.365Z,9024.00
2022-08-21T12:38:20.343Z,8972.00
2022-08-21T12:39:20.339Z,8944.00
2022-08-21T12:40:20.464Z,9032.00
2022-08-21T12:41:20.313Z,9056.00
2022-08-21T12:42:20.305Z,8596.00
2022-08-21T12:43:20.296Z,9564.00
2022-08-21T12:44:20.289Z,9540.00
2022-08-21T12:45:20.282Z,9760.00
2022-08-21T12:46:20.267Z,9988.00
2022-08-21T12:47:20.290Z,10176.00
2022-08-21T12:48:20.240Z,10192.00
2022-08-21T12:49:20.251Z,9008.00
2022-08-21T12:50:20.222Z,9572.00
2022-08-21T12:51:20.228Z,9872.00
2022-08-21T12:52:20.216Z,10084.00
2022-08-21T12:53:20.823Z,10328.00
2022-08-21T12:54:20.199Z,10392.00
2022-08-21T12:55:20.188Z,10504.00
2022-08-21T12:56:20.166Z,10896.00
2022-08-21T12:57:20.161Z,11076.00
2022-08-21T12:58:20.162Z,11064.00
2022-08-21T12:59:20.160Z,11272.00
2022-08-21T13:00:20.154Z,11352.00
2022-08-21T13:01:20.171Z,11740.00
2022-08-21T13:02:20.126Z,12408.00
2022-08-21T13:03:20.120Z,13164.00
2022-08-21T13:04:20.107Z,13472.00
2022-08-21T13:05:20.101Z,13648.00
2022-08-21T13:06:20.084Z,12668.00
2022-08-21T13:07:20.076Z,11860.00
2022-08-21T13:08:20.063Z,10644.00
2022-08-21T13:09:20.076Z,10672.00
2022-08-21T13:10:56.378Z,12004.00
2022-08-21T13:11:56.361Z,12364.00
2022-08-21T13:12:56.365Z,12484.00
2022-08-21T13:13:59.099Z,12040.00
2022-08-21T13:14:56.340Z,12000.00
2022-08-21T13:15:56.333Z,11984.00
2022-08-21T13:16:56.318Z,11980.00
2022-08-21T13:17:56.323Z,12088.00
2022-08-21T13:18:56.316Z,12408.00
2022-08-21T13:19:56.309Z,12652.00
2022-08-21T13:20:56.297Z,11732.00
2022-08-21T13:21:56.287Z,12852.00
2022-08-21T13:24:25.500Z,11212.00
2022-08-21T13:25:07.483Z,13956.00
2022-08-21T13:26:06.878Z,16128.00
2022-08-21T13:27:06.868Z,18016.00
2022-08-21T13:28:06.860Z,19552.00
2022-08-21T13:29:06.863Z,20768.00
2022-08-21T13:30:06.833Z,24800.00
2022-08-21T13:31:06.832Z,44320.00
2022-08-21T13:32:06.824Z,60928.00
2022-08-21T13:33:10.951Z,62976.00
2022-08-21T13:34:06.811Z,65184.00
2022-08-21T13:35:06.791Z,64896.00
2022-08-21T13:36:06.783Z,63072.00
2022-08-21T13:37:06.806Z,63936.00
2022-08-21T13:38:06.770Z,64992.00
2022-08-21T13:39:06.787Z,67200.00
2022-08-21T13:40:06.813Z,67232.00
2022-08-21T13:41:06.749Z,69760.00
2022-08-21T13:42:06.748Z,78432.00
2022-08-21T13:43:06.744Z,84000.00
2022-08-21T13:44:06.760Z,85184.00
2022-08-21T13:45:06.731Z,86688.00
2022-08-21T13:46:06.710Z,87776.00
2022-08-21T13:47:06.715Z,91040.00
2022-08-21T13:48:06.915Z,35200.00
2022-08-21T13:49:06.707Z,83424.00
2022-08-21T13:50:06.687Z,79200.00
2022-08-21T13:51:06.680Z,87424.00
2022-08-21T13:52:06.680Z,87232.00
2022-08-21T13:53:06.674Z,86816.00
2022-08-21T13:54:06.658Z,87712.00
2022-08-21T13:55:06.661Z,86080.00
2022-08-21T13:56:06.638Z,86176.00
2022-08-21T13:57:33.024Z,88704.00
2022-08-21T13:58:32.999Z,84672.00
2022-08-21T13:59:33.012Z,74848.00
2022-08-21T14:00:33.000Z,78368.00
2022-08-21T14:01:33.069Z,82816.00
2022-08-21T14:02:32.985Z,80768.00
2022-08-21T14:03:32.976Z,80000.00
2022-08-21T14:04:32.969Z,78912.00
2022-08-21T14:05:32.966Z,79136.00
2022-08-21T14:06:32.957Z,80416.00
2022-08-21T14:07:32.941Z,81952.00
2022-08-21T14:08:32.938Z,81760.00
2022-08-21T14:09:32.933Z,80864.00
2022-08-21T14:10:32.946Z,80416.00
2022-08-21T14:11:32.926Z,71360.00
2022-08-21T14:12:32.912Z,19040.00
2022-08-21T14:13:32.912Z,51584.00
2022-08-21T14:14:32.906Z,26880.00
2022-08-21T14:15:32.842Z,72896.00
2022-08-21T14:16:32.818Z,64032.00
2022-08-21T14:17:33.731Z,50848.00
2022-08-21T14:18:32.804Z,62720.00
2022-08-21T14:19:32.800Z,58656.00
2022-08-21T14:20:32.815Z,62080.00
2022-08-21T14:21:32.791Z,59872.00
2022-08-21T14:22:32.776Z,62208.00
2022-08-21T14:23:32.786Z,67424.00
2022-08-21T14:24:36.609Z,70400.00
2022-08-21T14:25:32.784Z,69408.00
2022-08-21T14:26:32.761Z,61536.00
2022-08-21T14:27:32.749Z,65856.00
2022-08-21T14:28:32.745Z,67872.00
2022-08-21T14:29:34.480Z,65536.00
2022-08-21T14:30:32.748Z,60704.00
2022-08-21T14:31:32.737Z,14540.00
2022-08-21T14:36:59.525Z,15648.00
2022-08-21T14:37:59.514Z,51840.00
2022-08-21T14:38:59.506Z,51264.00
2022-08-21T14:39:59.604Z,47328.00
2022-08-21T14:40:59.490Z,48096.00
2022-08-21T14:41:59.478Z,40544.00
2022-08-21T14:42:59.604Z,40000.00
2022-08-21T14:44:06.094Z,40288.00
2022-08-21T14:44:59.478Z,28384.00
2022-08-21T14:45:59.453Z,28800.00
2022-08-21T14:46:59.444Z,25056.00
2022-08-21T14:47:59.437Z,25216.00
2022-08-21T14:48:59.438Z,27200.00
2022-08-21T14:49:59.447Z,29632.00
2022-08-21T14:51:00.638Z,31360.00
2022-08-21T14:51:59.569Z,24896.00
2022-08-21T14:52:59.611Z,23744.00
2022-08-21T14:53:59.407Z,24640.00
2022-08-21T14:54:59.408Z,23744.00
2022-08-21T14:55:59.380Z,26656.00
2022-08-21T14:56:59.376Z,25344.00
2022-08-21T14:57:59.367Z,19296.00
2022-08-21T14:58:59.368Z,19872.00
2022-08-21T15:00:01.877Z,21792.00
2022-08-21T15:00:59.437Z,22816.00
2022-08-21T15:01:59.342Z,22176.00
2022-08-21T15:02:59.541Z,23136.00
2022-08-21T15:03:59.337Z,24896.00
2022-08-21T15:04:59.323Z,24832.00
2022-08-21T15:05:59.308Z,21408.00
2022-08-21T15:06:59.296Z,17952.00
2022-08-21T15:07:59.304Z,16256.00
2022-08-21T15:08:59.274Z,16480.00
2022-08-21T15:09:59.292Z,18464.00
2022-08-21T15:11:11.452Z,21600.00
2022-08-21T15:11:59.255Z,21600.00
2022-08-21T15:12:59.436Z,19744.00
2022-08-21T15:13:59.247Z,19936.00
2022-08-21T15:14:59.244Z,18368.00
2022-08-21T15:15:59.219Z,21920.00
2022-08-21T15:16:59.208Z,26048.00
2022-08-21T15:17:59.214Z,26880.00
2022-08-21T15:18:59.193Z,33088.00
2022-08-21T15:19:59.218Z,40160.00
2022-08-21T15:20:59.182Z,34400.00
2022-08-21T15:21:59.180Z,36064.00
2022-08-21T15:22:59.326Z,34112.00
2022-08-21T15:23:59.151Z,38176.00
2022-08-21T15:24:59.159Z,45920.00
2022-08-21T15:25:59.870Z,47296.00
2022-08-21T15:26:59.120Z,46112.00
2022-08-21T15:27:59.129Z,37856.00
2022-08-21T15:28:59.118Z,41952.00
2022-08-21T15:29:59.118Z,40672.00
2022-08-21T15:30:59.096Z,40960.00
2022-08-21T15:31:59.083Z,39872.00
2022-08-21T15:32:59.255Z,36896.00
2022-08-21T15:33:59.067Z,31872.00
2022-08-21T15:34:59.070Z,31328.00
2022-08-21T15:35:59.067Z,27456.00
2022-08-21T15:36:59.046Z,23296.00
2022-08-21T15:37:59.052Z,18976.00
2022-08-21T15:38:59.042Z,16480.00
2022-08-21T16:38:22.025Z,16896.00
2022-08-21T16:39:21.935Z,21120.00
2022-08-21T16:40:22.016Z,22464.00
2022-08-21T16:41:21.923Z,23104.00
2022-08-21T16:42:21.905Z,16480.00
